Tiempo atmosférico en la estación meteorológica de Almansa, Albacete (715 m.)



Fecha
DESCASC
Temp. máxima en grados centígrados (hora)
DESCASC
Temp. mínima en grados centígrados (hora)
DESCASC
Temp. media en grados centígrados
DESCASC
Racha de viento máxima en m/sg (hora)
DESCASC
Velocidad máxima media en intervalos de 10 minutos(hora)
DESCASC
Precipitaciones diarias en mm
DESCASC
Precipitaciones de 00:00 a 06:00 en mm
DESCASC
Precipitaciones de 06:00 a 12:00 en mm
DESCASC
Precipitaciones de 12:00 a 18:00 en mm
DESCASC
Precipitaciones de 18:00 a 24:00 en mm
DESCASC
07-08-2020 36.9 (16:00) 15.5 (07:00) 26.2 7.22 (18:00) 3.33 (18:30) 0 0 0 0 0
06-08-2020 34.6 (16:20) 20.3 (02:40) 27.4 6.94 (18:10) 2.78 (18:10) 0 0 0 0 0
05-08-2020 34.2 (16:10) 18.3 (07:30) 26.3 8.89 (18:30) 3.33 (18:30) 0 0 0 0 0
04-08-2020 30.5 (14:20) 20.5 (06:20) 25.5 7.78 (14:30) 4.17 (14:30) 0 0 0 0 0
03-08-2020 30.7 (17:20) 19.7 (07:20) 25.2 8.33 (14:40) 3.33 (14:20) 0 0 0 0 0
02-08-2020 39.8 (17:00) 19.8 (00:00) 29.8 11.94 (16:50) 3.89 (16:40) 0 0 0 0 0
01-08-2020 40.1 (16:10) 20 (00:00) 30 10.28 (16:40) 4.44 (17:40) 0 0 0 0 0
31-07-2020 40.5 (17:00) 16.3 (07:20) 28.4 7.5 (15:20) 3.33 (18:20) 0 0 0 0 0
30-07-2020 36.3 (16:50) 15.7 (00:00) 26 7.78 (17:10) 3.33 (11:00) 0 0 0 0 0
29-07-2020 32.7 (16:10) 17.4 (00:00) 25.1 8.89 (17:50) 3.89 (10:00) 0 0 0 0 0
28-07-2020 36.2 (15:20) 16.7 (00:00) 26.5 9.17 (18:20) 3.61 (17:50) 0 0 0 0 0
27-07-2020 37.6 (16:40) 16.9 (00:00) 27.2 8.61 (18:10) 3.61 (13:50) 0 0 0 0 0
26-07-2020 38.4 (15:50) 14.9 (00:00) 26.7 9.44 (17:40) 3.89 (18:10) 0 0 0 0 0
25-07-2020 35.4 (17:10) 18.3 (00:00) 26.9 8.33 (16:00) 3.33 (16:30) 0 0 0 0 0
24-07-2020 35.3 (15:30) 15.7 (00:00) 25.5 8.61 (16:40) 3.61 (16:50) 0 0 0 0 0
23-07-2020 35.3 (16:50) 12.4 (00:00) 23.8 7.22 (16:20) 3.06 (16:20) 0 0 0 0 0
22-07-2020 28.2 (16:10) 17.4 (00:00) 22.8 9.72 (12:50) 4.72 (12:20) 0 0 0 0 0
21-07-2020 32.7 (17:00) 17.9 (00:00) 25.3 8.33 (17:00) 3.33 (19:00) 0 0 0 0 0
20-07-2020 34.9 (15:50) 19.2 (00:00) 27.1 7.78 (15:10) 3.33 (18:30) 0 0 0 0 0
19-07-2020 34.8 (17:10) 14.7 (00:00) 24.7 8.89 (17:40) 3.89 (18:20) 0 0 0 0 0
18-07-2020 32.2 (16:50) 16.9 (00:00) 24.6 6.94 (17:40) 3.33 (18:10) 0 0 0 0 0
17-07-2020 32.4 (15:20) 15.2 (00:00) 23.8 8.06 (16:40) 3.89 (17:00) 2.6 0 0 0.2 2.4
16-07-2020 32.2 (17:20) 13.5 (00:00) 22.9 6.67 (17:50) 2.78 (17:50) 0 0 0 0 0
15-07-2020 30.7 (18:10) 14.4 (00:00) 22.6 8.06 (18:30) 2.78 (16:40) 0 0 0 0 0
14-07-2020 28.5 (15:10) 14.6 (00:00) 21.6 8.89 (15:00) 3.89 (14:50) 0 0 0 0 0
13-07-2020 30.6 (16:20) 14.6 (00:00) 22.6 8.33 (17:30) 3.61 (15:50) 0.2 0.2 0 0 0

Gráficas

Temp. máximas Temp. mínimas Temp. medias Precipitaciones Rachas de viento máximas Velocidades máximas media en intervalos de 10 minutos

Datos horarios

Fecha y hora oficial Temperatura (ºC) Velocidad del viento (km/h) Dirección del viento Racha (km/h) Dirección de racha Precipitación (mm) Presión (hPa) Tendencia (hPa) Humedad (%)
2020-08-11 23:00:00 22.1 3 Este 14 Nordeste 0 -- -- 80
2020-08-11 22:00:00 22.1 6 Este 21 Este 0 -- -- 80
2020-08-11 21:00:00 23.1 10 Este 28 Este 0 -- -- 76
2020-08-11 20:00:00 24.6 10 Este 35 Este 0 -- -- 69
2020-08-11 19:00:00 27.1 13 Este 35 Este 0 -- -- 56
2020-08-11 18:00:00 28.8 13 Este 33 Este 0 -- -- 48
2020-08-11 17:00:00 29.2 14 Este 37 Nordeste 0 -- -- 51
2020-08-11 16:00:00 29.1 12 Este 30 Nordeste 0 -- -- 49
2020-08-11 15:00:00 29.7 11 Este 27 Este 0 -- -- 47
2020-08-11 14:00:00 30.4 13 Este 24 Este 0 -- -- 41
2020-08-11 13:00:00 28.7 9 Este 29 Este 0 -- -- 51
2020-08-11 12:00:00 26.3 11 Este 28 Sudeste 0 -- -- 58
2020-08-11 11:00:00 22.8 9 Nordeste 19 Este 0 -- -- 74
2020-08-11 10:00:00 20.7 6 Este 17 Nordeste 0 -- -- 87
2020-08-11 09:00:00 20.2 8 Este 13 Este 0 -- -- 90
2020-08-11 08:00:00 19.1 3 Este 6 Este 0 -- -- 92
2020-08-11 07:00:00 17.9 2 Sur 3 Sudoeste 0 -- -- 90
2020-08-11 06:00:00 17.3 0 Calma 6 Oeste 0 -- -- 90
2020-08-11 05:00:00 17.3 0 Calma 4 Sur 0 -- -- 88
2020-08-11 04:00:00 18.4 0 Calma 7 Sudoeste 0 -- -- 87
2020-08-11 03:00:00 19.9 0 Calma 9 Este 0 -- -- 88
2020-08-11 02:00:00 20.6 3 Este 8 Este 0 -- -- 87
2020-08-11 01:00:00 21.3 3 Sudeste 7 Este 0 -- -- 84
2020-08-11 00:00:00 21.6 0 Calma 21 Este 0 -- -- 78
2020-08-10 23:00:00 23.1 7 Sudeste 24 Sudeste 0 -- -- 69
2020-08-10 22:00:00 24.8 9 Este 24 Este 0 -- -- 61
2020-08-10 21:00:00 27.1 6 Nordeste 20 Nordeste 0 -- -- 46
2020-08-10 20:00:00 28.9 9 Este 24 Nordeste 0 -- -- 45
2020-08-10 19:00:00 32.3 10 Este 25 Sudeste 0 -- -- 39
2020-08-10 18:00:00 34.6 9 Este 24 Este 0 -- -- 21
2020-08-10 17:00:00 35.8 7 Sudeste 18 Este 0 -- -- 20
2020-08-10 16:00:00 35 8 Oeste 20 Sur 0 -- -- 20
2020-08-10 15:00:00 34 8 Sudoeste 19 Sur 0 -- -- 21
2020-08-10 14:00:00 33 10 Sur 30 Sudeste 0 -- -- 23
2020-08-10 13:00:00 32.4 8 Sudoeste 23 Sur 0 -- -- 25
2020-08-10 12:00:00 32.2 6 Sudeste 15 Sur 0 -- -- 24
2020-08-10 11:00:00 29.3 5 Nordeste 12 Nordeste 0 -- -- 31
2020-08-10 10:00:00 26.1 3 Noroeste 8 Nordeste 0 -- -- 40
2020-08-10 09:00:00 21 3 Sudoeste 7 Sudoeste 0 -- -- 46
2020-08-10 08:00:00 16.4 2 Sur 5 Sur 0 -- -- 62
2020-08-10 07:00:00 15.6 3 Sur 6 Sudoeste 0 -- -- 58
2020-08-10 06:00:00 16.5 0 Calma 5 Sur 0 -- -- 66
2020-08-10 05:00:00 17.6 3 Sudoeste 6 Sudoeste 0 -- -- 74
2020-08-10 04:00:00 19.1 0 Calma 6 Sudoeste 0 -- -- 79
2020-08-10 03:00:00 20.4 5 Noroeste 13 Sur 0 -- -- 77
2020-08-10 02:00:00 20.7 3 Sudeste 17 Sudeste 0 -- -- 80
2020-08-10 01:00:00 21.8 5 Este 23 Nordeste 0 -- -- 74
2020-08-10 00:00:00 22.5 6 Este 19 Este 0 -- -- 73
2020-08-09 23:00:00 24.9 8 Este 19 Este 0 -- -- 59
2020-08-09 22:00:00 27 7 Sudeste 18 Sudeste 0 -- -- 28
2020-08-09 21:00:00 29.3 3 Sudeste 18 Sudeste 0 -- -- 28
2020-08-09 20:00:00 32.4 7 Sudeste 23 Sur 0 -- -- 26
2020-08-09 19:00:00 34.9 8 Sudeste 28 Este 0 -- -- 22
2020-08-09 18:00:00 36.4 12 Sudeste 32 Este 0 -- -- 20
2020-08-09 17:00:00 37.5 14 Sudeste 31 Sudeste 0 -- -- 18
2020-08-09 16:00:00 38.1 8 Sudeste 24 Sur 0 -- -- 15
2020-08-09 15:00:00 37.7 9 Sudoeste 24 Oeste 0 -- -- 15
2020-08-09 14:00:00 37.2 9 Sur 24 Sur 0 -- -- 15
2020-08-09 13:00:00 36.5 6 Sudoeste 20 Sur 0 -- -- 15
2020-08-09 12:00:00 34.6 6 Este 15 Este 0 -- -- 23
2020-08-09 11:00:00 31.8 4 Nordeste 9 Este 0 -- -- 27
2020-08-09 10:00:00 28.1 3 Nordeste 8 Nordeste 0 -- -- 33
2020-08-09 09:00:00 24 0 Calma 4 Sudoeste 0 -- -- 42
2020-08-09 08:00:00 19.3 2 Sur 10 Sudoeste 0 -- -- 51
2020-08-09 07:00:00 18.7 0 Calma 5 Sudoeste 0 -- -- 52
2020-08-09 06:00:00 20.5 0 Calma 9 Oeste 0 -- -- 47
2020-08-09 05:00:00 21.4 3 Norte 8 Sur 0 -- -- 45
2020-08-09 04:00:00 22.3 4 Sudoeste 14 Sudoeste 0 -- -- 40
2020-08-09 03:00:00 22.5 4 Sur 19 Sudoeste 0 -- -- 38
2020-08-09 02:00:00 22.6 4 Nordeste 10 Este 0 -- -- 41
2020-08-09 01:00:00 23 0 Calma 9 Oeste 0 -- -- 38
2020-08-09 00:00:00 23.4 2 Sudoeste 9 Sudoeste 0 -- -- 37
2020-08-08 23:00:00 24.7 2 Sur 12 Sudeste 0 -- -- 37
2020-08-08 22:00:00 26.1 3 Sudeste 12 Sudeste 0 -- -- 42
2020-08-08 21:00:00 28.4 4 Este 19 Este 0 -- -- 46
2020-08-08 20:00:00 32 7 Sudeste 23 Este 0 -- -- 25
2020-08-08 19:00:00 35.2 10 Sudeste 27 Sur 0 -- -- 22
2020-08-08 18:00:00 37.4 12 Sur 28 Sudoeste 0 -- -- 21
2020-08-08 17:00:00 38 13 Sur 28 Sur 0 -- -- 19
2020-08-08 16:00:00 38.7 10 Sudoeste 24 Sur 0 -- -- 16
2020-08-08 15:00:00 38.6 10 Sudoeste 24 Sudoeste 0 -- -- 17
2020-08-08 14:00:00 37.4 7 Sur 16 Sudoeste 0 -- -- 18
2020-08-08 13:00:00 36.5 6 Sur 17 Sudoeste 0 -- -- 18
2020-08-08 12:00:00 34.5 5 Oeste 12 Oeste 0 -- -- 20
2020-08-08 11:00:00 31.3 3 Oeste 9 Sudoeste 0 -- -- 24
2020-08-08 10:00:00 27 2 Nordeste 16 Este 0 -- -- 37
2020-08-08 09:00:00 22.4 2 Sur 9 Sudoeste 0 -- -- 49
2020-08-08 08:00:00 17.4 2 Sudoeste 10 Sur 0 -- -- 60
2020-08-08 07:00:00 17 3 Sudoeste 9 Sudoeste 0 -- -- 62
2020-08-08 06:00:00 18.1 3 Sur 8 Sudoeste 0 -- -- 64
2020-08-08 05:00:00 18.9 2 Sur 10 Sur 0 -- -- 63
2020-08-08 04:00:00 18.9 0 Calma 3 Sur 0 -- -- 62
2020-08-08 03:00:00 19.7 0 Calma 4 Sur 0 -- -- 63
2020-08-08 02:00:00 20.5 3 Sudoeste 8 Sudoeste 0 -- -- 61
2020-08-08 01:00:00 21.3 0 Calma 8 Sudoeste 0 -- -- 55
2020-08-08 00:00:00 22.6 3 Sur 11 Este 0 -- -- 53
2020-08-07 23:00:00 24 0 Calma 10 Sudeste 0 -- -- 45
2020-08-07 22:00:00 26.2 5 Sudeste 17 Sur 0 -- -- 38
2020-08-07 21:00:00 28.7 4 Este 17 Sur 0 -- -- 35
2020-08-07 20:00:00 32 9 Sur 20 Sudeste 0 -- -- 30
2020-08-07 19:00:00 33.9 11 Sur 25 Sudeste 0 -- -- 26
2020-08-07 18:00:00 36 10 Sudeste 26 Sudeste 0 -- -- 22
2020-08-07 17:00:00 36.6 8 Sudeste 21 Sudeste 0 -- -- 21
2020-08-07 16:00:00 36.9 9 Sur 18 Sudeste 0 -- -- 20
2020-08-07 15:00:00 36.2 6 Sudeste 20 Sudeste 0 -- -- 21
2020-08-07 14:00:00 35.1 8 Sudoeste 18 Sudoeste 0 -- -- 24
2020-08-07 13:00:00 34 6 Norte 16 Nordeste 0 -- -- 21
2020-08-07 12:00:00 31.8 8 Nordeste 16 Nordeste 0 -- -- 28
2020-08-07 11:00:00 28.3 5 Nordeste 10 Este 0 -- -- 38
2020-08-07 10:00:00 25.2 4 Nordeste 9 Este 0 -- -- 51
2020-08-07 09:00:00 20.7 0 Calma 5 Sur 0 -- -- 68
2020-08-07 08:00:00 16.4 3 Sur 9 Sudoeste 0 -- -- 79
2020-08-07 07:00:00 15.5 3 Sudoeste 7 Sudoeste 0 -- -- 82
2020-08-07 06:00:00 16.2 0 Calma 4 Sudoeste 0 -- -- 79
2020-08-07 05:00:00 17.1 4 Sudoeste 7 Sur 0 -- -- 78
2020-08-07 04:00:00 17.5 4 Sudoeste 8 Sudoeste 0 -- -- 79
2020-08-07 03:00:00 18.4 0 Calma 5 Sudoeste 0 -- -- 75
2020-08-07 02:00:00 19.1 0 Calma 5 Sur 0 -- -- 72
2020-08-07 01:00:00 20.1 3 Sudoeste 7 Sudoeste 0 -- -- 70
2020-08-07 00:00:00 21.3 0 Calma 4 Sur 0 -- -- 67
2020-08-06 23:00:00 23.2 2 Sudeste 13 Sur 0 -- -- 62
2020-08-06 22:00:00 24.7 5 Sur 14 Sur 0 -- -- 56
2020-08-06 21:00:00 27.3 5 Sudeste 17 Sudeste 0 -- -- 49
2020-08-06 20:00:00 30.4 7 Sudeste 20 Sudeste 0 -- -- 41
2020-08-06 19:00:00 32.3 8 Este 25 Este 0 -- -- 36
2020-08-06 18:00:00 33.9 8 Sudeste 21 Sudeste 0 -- -- 32
2020-08-06 17:00:00 34.5 6 Este 22 Este 0 -- -- 29
2020-08-06 16:00:00 34.4 8 Sudeste 23 Este 0 -- -- 28
2020-08-06 15:00:00 33.3 6 Sur 17 Sur 0 -- -- 29
2020-08-06 14:00:00 32.1 7 Sudeste 19 Este 0 -- -- 31
2020-08-06 13:00:00 31 7 Este 22 Este 0 -- -- 34
2020-08-06 12:00:00 28.8 6 Este 17 Este 0 -- -- 38
2020-08-06 11:00:00 26.5 6 Este 15 Sudeste 0 -- -- 45
2020-08-06 10:00:00 23.8 6 Este 13 Sudeste 0 -- -- 62
2020-08-06 09:00:00 21.4 3 Sudeste 9 Nordeste 0 -- -- 80
2020-08-06 08:00:00 20.4 0 Calma 5 Este 0 -- -- 86
2020-08-06 07:00:00 20.6 2 Este 9 Sudeste 0 -- -- 86
2020-08-06 06:00:00 20.3 4 Este 14 Este 0 -- -- 87
2020-08-06 05:00:00 20.5 4 Este 12 Nordeste 0 -- -- 86
2020-08-06 04:00:00 20.7 4 Este 10 Nordeste 0 -- -- 88
2020-08-06 03:00:00 20.3 4 Este 10 Este 0 -- -- 87
2020-08-06 02:00:00 20.4 3 Sudeste 9 Sudeste 0 -- -- 81
2020-08-06 01:00:00 20.4 2 Sur 4 Sudeste 0 -- -- 77
2020-08-06 00:00:00 21.6 0 Calma 10 Sur 0 -- -- 75
2020-08-05 23:00:00 22.6 4 Sudeste 15 Sur 0 -- -- 74
2020-08-05 22:00:00 24.1 4 Sudeste 12 Este 0 -- -- 68
2020-08-05 21:00:00 26.3 5 Sudeste 21 Sur 0 -- -- 60
2020-08-05 20:00:00 28.5 10 Sur 23 Sudeste 0 -- -- 53
2020-08-05 19:00:00 30.4 11 Sudeste 32 Sudeste 0 -- -- 46
2020-08-05 18:00:00 33.5 9 Sur 26 Sur 0 -- -- 37
2020-08-05 17:00:00 33.9 8 Sur 20 Sudeste 0 -- -- 34
2020-08-05 16:00:00 34 5 Norte 19 Sudoeste 0 -- -- 29
2020-08-05 15:00:00 32.7 3 Nordeste 18 Sudoeste 0 -- -- 32
2020-08-05 14:00:00 31.2 6 Sudoeste 19 Sur 0 -- -- 34
2020-08-05 13:00:00 30 5 Sur 17 Noroeste 0 -- -- 37
2020-08-05 12:00:00 28.1 5 Sudoeste 20 Sudeste 0 -- -- 39
2020-08-05 11:00:00 26 6 Sudoeste 18 Oeste 0 -- -- 42
2020-08-05 10:00:00 24 8 Sur 15 Sur 0 -- -- 49
2020-08-05 09:00:00 20.9 3 Sur 8 Sudoeste 0 -- -- 77
2020-08-05 08:00:00 18.5 3 Sudoeste 6 Sudoeste 0 -- -- 90
2020-08-05 07:00:00 18.8 4 Sur 6 Sur 0 -- -- 88
2020-08-05 06:00:00 20.2 0 Calma 5 Sur 0 -- -- 87
2020-08-05 05:00:00 20.6 0 Calma 6 Sudeste 0 -- -- 86
2020-08-05 04:00:00 20.7 0 Calma 8 Sudeste 0 -- -- 86
2020-08-05 03:00:00 20.6 0 Calma 5 Sudeste 0 -- -- 85
2020-08-05 02:00:00 21 0 Calma 5 Sudeste 0 -- -- 84
2020-08-05 01:00:00 20.7 2 Sudeste 7 Sudeste 0 -- -- 84
2020-08-05 00:00:00 20.8 0 Calma 9 Sudeste 0 -- -- 83
2020-08-04 23:00:00 21.4 3 Este 13 Este 0 -- -- 81
2020-08-04 22:00:00 22.4 6 Sudeste 17 Sur 0 -- -- 77
2020-08-04 21:00:00 24.1 4 Sudeste 18 Sudeste 0 -- -- 71
2020-08-04 20:00:00 25.5 7 Sudeste 21 Sudeste 0 -- -- 65
2020-08-04 19:00:00 26.5 8 Sudeste 27 Sudeste 0 -- -- 60
2020-08-04 18:00:00 27.8 11 Este 28 Sudeste 0 -- -- 58
2020-08-04 17:00:00 28.7 12 Sudeste 27 Sur 0 -- -- 55
2020-08-04 16:00:00 28.3 11 Este 26 Este 0 -- -- 54
2020-08-04 15:00:00 29.1 10 Este 28 Nordeste 0 -- -- 52
2020-08-04 14:00:00 29.6 7 Oeste 16 Sudoeste 0 -- -- 41
2020-08-04 13:00:00 29.4 6 Sudeste 15 Sur 0 -- -- 45
2020-08-04 12:00:00 26.8 6 Sur 22 Sudeste 0 -- -- 55
2020-08-04 11:00:00 25.3 6 Sudeste 16 Sudeste 0 -- -- 66
2020-08-04 10:00:00 23.4 3 Sudoeste 11 Sudeste 0 -- -- 75
2020-08-04 09:00:00 21.8 3 Este 7 Este 0 -- -- 85
2020-08-04 08:00:00 20.7 0 Calma 4 Sudoeste 0 -- -- 88
2020-08-04 07:00:00 20.7 0 Calma 6 Este 0 -- -- 89
2020-08-04 06:00:00 20.6 0 Calma 4 Sudeste 0 -- -- 87
2020-08-04 05:00:00 20.9 0 Calma 10 Este 0 -- -- 86
2020-08-04 04:00:00 21.3 4 Este 10 Este 0 -- -- 86
2020-08-04 03:00:00 21.4 0 Calma 11 Sudeste 0 -- -- 84
2020-08-04 02:00:00 22 3 Sudeste 15 Este 0 -- -- 83
2020-08-04 01:00:00 22.3 4 Sudeste 14 Sudeste 0 -- -- 83
2020-08-04 00:00:00 21.7 0 Calma 13 Sur 0 -- -- 83
2020-08-03 23:00:00 22.5 4 Sudeste 11 Sur 0 -- -- 80
2020-08-03 22:00:00 23 4 Sudeste 17 Sudeste 0 -- -- 79
2020-08-03 21:00:00 25.1 6 Sudeste 18 Este 0 -- -- 70
2020-08-03 20:00:00 26.7 6 Sudeste 27 Sudeste 0 -- -- 64
2020-08-03 19:00:00 29.8 9 Este 19 Este 0 -- -- 49
2020-08-03 18:00:00 30 6 Este 20 Nordeste 0 -- -- 49
2020-08-03 17:00:00 30.1 6 Norte 27 Nordeste 0 -- -- 47
2020-08-03 16:00:00 30.2 8 Este 25 Nordeste 0 -- -- 50
2020-08-03 15:00:00 29.7 11 Nordeste 30 Nordeste 0 -- -- 50
2020-08-03 14:00:00 29.4 8 Nordeste 24 Nordeste 0 -- -- 47
2020-08-03 13:00:00 28.2 5 Este 18 Este 0 -- -- 54
2020-08-03 12:00:00 26.1 3 Norte 17 Este 0 -- -- 60
2020-08-03 11:00:00 23.8 5 Este 14 Sudeste 0 -- -- 73
2020-08-03 10:00:00 23.2 5 Sudeste 14 Este 0 -- -- 78
2020-08-03 09:00:00 21.7 4 Este 13 Este 0 -- -- 88
2020-08-03 08:00:00 20.2 0 Calma 7 Sur 0 -- -- 93
2020-08-03 07:00:00 20 0 Calma 5 Nordeste 0 -- -- 89
2020-08-03 06:00:00 20.9 0 Calma 7 Sudeste 0 -- -- 92
2020-08-03 05:00:00 20 2 Sur 8 Sur 0 -- -- 92
2020-08-03 04:00:00 20.3 0 Calma 4 Sudeste 0 -- -- 87
2020-08-03 03:00:00 21.1 0 Calma 12 Sudeste 0 -- -- 87
2020-08-03 02:00:00 21.6 4 Sudeste 13 Sudeste 0 -- -- 88
2020-08-03 01:00:00 21.5 2 Sudeste 8 Sudeste 0 -- -- 82
2020-08-03 00:00:00 22.7 0 Calma 4 Sudeste 0 -- -- 76
2020-08-02 23:00:00 24.5 3 Sudeste 10 Este 0 -- -- 71
2020-08-02 22:00:00 25.9 4 Este 19 Sudeste 0 -- -- 67
2020-08-02 21:00:00 27.9 7 Sudeste 23 Sudeste 0 -- -- 58
2020-08-02 20:00:00 29.6 8 Sudeste 27 Sudeste 0 -- -- 54
2020-08-02 19:00:00 30.6 9 Sudeste 33 Sudeste 0 -- -- 51
2020-08-02 18:00:00 38.4 14 Norte 33 Norte 0 -- -- 33
2020-08-02 17:00:00 39.8 11 Oeste 43 Norte 0 -- -- 15
2020-08-02 16:00:00 39.3 13 Noroeste 32 Oeste 0 -- -- 16
2020-08-02 15:00:00 38.4 12 Oeste 36 Oeste 0 -- -- 16
2020-08-02 14:00:00 37.2 13 Oeste 31 Noroeste 0 -- -- 17
2020-08-02 13:00:00 35.3 6 Norte 15 Norte 0 -- -- 22
2020-08-02 12:00:00 32.6 5 Este 13 Noroeste 0 -- -- 25
2020-08-02 11:00:00 30.5 4 Norte 11 Este 0 -- -- 33
2020-08-02 10:00:00 28.1 4 Este 12 Este 0 -- -- 46
2020-08-02 09:00:00 25.3 5 Este 13 Este 0 -- -- 51
2020-08-02 08:00:00 20.7 3 Sudeste 9 Sudeste 0 -- -- 36
2020-08-02 07:00:00 20.5 0 Calma 12 Oeste 0 -- -- 32
2020-08-02 06:00:00 21.2 4 Oeste 8 Oeste 0 -- -- 27
2020-08-02 05:00:00 23.1 4 Oeste 12 Oeste 0 -- -- 23
2020-08-02 04:00:00 25.5 6 Noroeste 21 Oeste 0 -- -- 19
2020-08-02 03:00:00 25.7 10 Oeste 22 Oeste 0 -- -- 16
2020-08-02 02:00:00 24.2 7 Oeste 14 Oeste 0 -- -- 17
2020-08-02 01:00:00 24 4 Sudoeste 12 Sudoeste 0 -- -- 22
2020-08-02 00:00:00 25.9 7 Sudoeste 12 Sudoeste 0 -- -- 23
2020-08-01 23:00:00 27.2 6 Sudoeste 12 Sur 0 -- -- 33
2020-08-01 22:00:00 30.3 4 Sudoeste 14 Sur 0 -- -- 35
2020-08-01 21:00:00 34.3 3 Sudoeste 21 Oeste 0 -- -- 26
2020-08-01 20:00:00 37.2 8 Noroeste 27 Noroeste 0 -- -- 13
2020-08-01 19:00:00 38.6 13 Noroeste 30 Noroeste 0 -- -- 14
2020-08-01 18:00:00 39.6 14 Oeste 36 Norte 0 -- -- 15
2020-08-01 17:00:00 40.1 14 Oeste 37 Oeste 0 -- -- 16
2020-08-01 16:00:00 40 15 Oeste 34 Oeste 0 -- -- 17
2020-08-01 15:00:00 39.6 13 Noroeste 31 Noroeste 0 -- -- 17
2020-08-01 14:00:00 38.4 13 Noroeste 29 Noroeste 0 -- -- 18
2020-08-01 13:00:00 36.9 12 Noroeste 28 Oeste 0 -- -- 21
2020-08-01 12:00:00 35.6 10 Oeste 23 Oeste 0 -- -- 23
2020-08-01 11:00:00 34.1 9 Oeste 21 Oeste 0 -- -- 25
2020-08-01 10:00:00 30.1 5 Noroeste 14 Oeste 0 -- -- 33
2020-08-01 09:00:00 25.5 5 Oeste 12 Oeste 0 -- -- 52
2020-08-01 08:00:00 22.7 3 Sudoeste 9 Sur 0 -- -- 65
2020-08-01 07:00:00 21.2 5 Sudoeste 13 Oeste 0 -- -- 71
2020-08-01 06:00:00 20.1 0 Calma 5 Sur 0 -- -- 69
2020-08-01 05:00:00 20.3 3 Sudoeste 5 Sudoeste 0 -- -- 68
2020-08-01 04:00:00 21.4 0 Calma 9 Sur 0 -- -- 64
2020-08-01 03:00:00 22.1 5 Sudoeste 10 Sudoeste 0 -- -- 65
2020-08-01 02:00:00 22 4 Sudoeste 6 Oeste 0 -- -- 64
2020-08-01 01:00:00 23.1 0 Calma 4 Sudoeste 0 -- -- 63
2020-08-01 00:00:00 24.8 0 Calma 6 Sudeste 0 -- -- 59
2020-07-31 23:00:00 26.9 2 Sudeste 8 Sur 0 -- -- 53
2020-07-31 22:00:00 29.2 3 Sur 10 Este 0 -- -- 48
2020-07-31 21:00:00 32.4 3 Sudeste 17 Este 0 -- -- 41
2020-07-31 20:00:00 35.7 8 Sudeste 24 Norte 0 -- -- 34
2020-07-31 19:00:00 38.9 10 Oeste 26 Norte 0 -- -- 18
2020-07-31 18:00:00 40.1 10 Noroeste 27 Noroeste 0 -- -- 18
2020-07-31 17:00:00 40.5 8 Noroeste 26 Oeste 0 -- -- 17
2020-07-31 16:00:00 39.6 10 Sudoeste 27 Sudoeste 0 -- -- 18
2020-07-31 15:00:00 38.8 9 Noroeste 24 Oeste 0 -- -- 19
2020-07-31 14:00:00 38 6 Sudoeste 20 Sur 0 -- -- 21
2020-07-31 13:00:00 36.3 7 Oeste 18 Sur 0 -- -- 25
2020-07-31 12:00:00 34.8 6 Sur 19 Sur 0 -- -- 28
2020-07-31 11:00:00 32.8 5 Sur 13 Sur 0 -- -- 27
2020-07-31 10:00:00 29 6 Este 11 Nordeste 0 -- -- 42
2020-07-31 09:00:00 23 0 Calma 5 Sudoeste 0 -- -- 60
2020-07-31 08:00:00 17.1 0 Calma 3 Sudoeste 0 -- -- 75
2020-07-31 07:00:00 16.5 0 Calma 6 Sur 0 -- -- 75
2020-07-31 06:00:00 17.2 0 Calma 9 Sudoeste 0 -- -- 72
2020-07-31 05:00:00 17.8 3 Sudoeste 8 Sur 0 -- -- 71
2020-07-31 04:00:00 18.7 4 Sudoeste 9 Sudoeste 0 -- -- 69
2020-07-31 03:00:00 19.4 3 Sudoeste 8 Sur 0 -- -- 69
2020-07-31 02:00:00 20.7 0 Calma 9 Sur 0 -- -- 67
2020-07-31 01:00:00 22.2 4 Sur 10 Sudeste 0 -- -- 65
2020-07-31 00:00:00 23.3 5 Este 19 Este 0 -- -- 63
2020-07-30 23:00:00 24.2 4 Sudeste 21 Este 0 -- -- 65
2020-07-30 22:00:00 26.1 9 Este 24 Este 0 -- -- 63
2020-07-30 21:00:00 30 8 Este 25 Oeste 0 -- -- 50
2020-07-30 20:00:00 31.2 6 Sudeste 19 Sudeste 0 -- -- 48
2020-07-30 19:00:00 32.5 7 Este 28 Sudeste 0 -- -- 44
2020-07-30 18:00:00 35.2 9 Este 28 Este 0 -- -- 37
2020-07-30 17:00:00 36.3 8 Este 27 Este 0 -- -- 33
2020-07-30 16:00:00 35.4 9 Este 26 Este 0 -- -- 32
2020-07-30 15:00:00 34.6 9 Sudeste 23 Sudeste 0 -- -- 31
2020-07-30 14:00:00 33 7 Este 18 Este 0 -- -- 37
2020-07-30 13:00:00 30.8 8 Este 19 Este 0 -- -- 39
2020-07-30 12:00:00 29.9 8 Este 24 Nordeste 0 -- -- 38
2020-07-30 11:00:00 27.9 12 Este 24 Este 0 -- -- 44
2020-07-30 10:00:00 25.3 6 Este 16 Este 0 -- -- 47
2020-07-30 09:00:00 19.9 5 Sur 10 Sur 0 -- -- 70
2020-07-30 08:00:00 16.1 0 Calma 8 Sudoeste 0 -- -- 92
2020-07-30 07:00:00 16 2 Sudoeste 7 Sudoeste 0 -- -- 91
2020-07-30 06:00:00 16.8 3 Sudoeste 6 Sudoeste 0 -- -- 92
2020-07-30 05:00:00 17.4 0 Calma 6 Nordeste 0 -- -- 90
2020-07-30 04:00:00 18.3 2 Sur 12 Sudoeste 0 -- -- 90
2020-07-30 03:00:00 18.9 2 Sur 7 Sur 0 -- -- 89
2020-07-30 02:00:00 19.8 0 Calma 10 Sudeste 0 -- -- 86
2020-07-30 01:00:00 20.6 5 Este 14 Este 0 -- -- 86
2020-07-30 00:00:00 21.5 7 Este 16 Este 0 -- -- 83
2020-07-29 23:00:00 22.5 4 Este 21 Este 0 -- -- 71
2020-07-29 22:00:00 23.9 5 Este 18 Este 0 -- -- 68
2020-07-29 21:00:00 25.7 8 Este 22 Este 0 -- -- 62
2020-07-29 20:00:00 27.8 10 Este 28 Este 0 -- -- 57
2020-07-29 19:00:00 29.6 12 Este 28 Este 0 -- -- 55
2020-07-29 18:00:00 31.6 10 Este 32 Nordeste 0 -- -- 50
2020-07-29 17:00:00 32.2 12 Este 28 Nordeste 0 -- -- 48
2020-07-29 16:00:00 32.6 9 Este 25 Este 0 -- -- 46
2020-07-29 15:00:00 31.8 10 Este 23 Nordeste 0 -- -- 48
2020-07-29 14:00:00 30.7 9 Este 25 Nordeste 0 -- -- 47
2020-07-29 13:00:00 29.5 8 Este 26 Este 0 -- -- 52
2020-07-29 12:00:00 27.6 10 Este 27 Este 0 -- -- 59
2020-07-29 11:00:00 26.3 11 Este 24 Este 0 -- -- 62
2020-07-29 10:00:00 23.7 14 Este 28 Este 0 -- -- 73
2020-07-29 09:00:00 22.3 11 Este 23 Nordeste 0 -- -- 80
2020-07-29 08:00:00 20.6 8 Este 18 Nordeste 0 -- -- 87
2020-07-29 07:00:00 19.7 6 Este 14 Nordeste 0 -- -- 91
2020-07-29 06:00:00 18.8 5 Este 12 Este 0 -- -- 94
2020-07-29 05:00:00 17.4 0 Calma 5 Sudeste 0 -- -- 89
2020-07-29 04:00:00 17.9 0 Calma 6 Sudeste 0 -- -- 88
2020-07-29 03:00:00 18.9 2 Sudeste 7 Sur 0 -- -- 85
2020-07-29 02:00:00 19.3 0 Calma 4 Sudoeste 0 -- -- 82
2020-07-29 01:00:00 20.3 0 Calma 4 Sudeste 0 -- -- 80
2020-07-29 00:00:00 21.7 0 Calma 9 Sudeste 0 -- -- 75
2020-07-28 23:00:00 23.1 4 Este 17 Sudeste 0 -- -- 73
2020-07-28 22:00:00 24.5 5 Este 16 Este 0 -- -- 66
2020-07-28 21:00:00 26.8 8 Este 20 Este 0 -- -- 56
2020-07-28 20:00:00 29.2 12 Este 27 Este 0 -- -- 53
2020-07-28 19:00:00 31.8 12 Este 33 Nordeste 0 -- -- 45
2020-07-28 18:00:00 34 11 Este 32 Sudeste 0 -- -- 40
2020-07-28 17:00:00 35.5 9 Este 27 Este 0 -- -- 36
2020-07-28 16:00:00 35.9 10 Sudeste 27 Este 0 -- -- 32
2020-07-28 15:00:00 35.9 9 Sudeste 30 Nordeste 0 -- -- 26
2020-07-28 14:00:00 35.4 10 Este 24 Este 0 -- -- 26
2020-07-28 13:00:00 35 6 Este 20 Nordeste 0 -- -- 23
2020-07-28 12:00:00 34.1 10 Este 22 Este 0 -- -- 23
2020-07-28 11:00:00 32.6 5 Este 14 Este 0 -- -- 24
2020-07-28 10:00:00 28.8 3 Norte 7 Norte 0 -- -- 32
2020-07-28 09:00:00 23 0 Calma 7 Sudoeste 0 -- -- 47
2020-07-28 08:00:00 17.2 2 Sudoeste 7 Sudoeste 0 -- -- 58
2020-07-28 07:00:00 17.2 2 Sudoeste 10 Sur 0 -- -- 55
2020-07-28 06:00:00 17.8 9 Sudoeste 12 Sudoeste 0 -- -- 53
2020-07-28 05:00:00 18 3 Sudoeste 9 Sudoeste 0 -- -- 52
2020-07-28 04:00:00 17.9 4 Sudoeste 8 Sur 0 -- -- 53
2020-07-28 03:00:00 19.8 5 Sudoeste 12 Sudoeste 0 -- -- 47
2020-07-28 02:00:00 20.6 6 Sudoeste 10 Sudoeste 0 -- -- 45
2020-07-28 01:00:00 21.9 2 Sur 6 Sur 0 -- -- 42
2020-07-28 00:00:00 22.5 4 Sudoeste 9 Sur 0 -- -- 40
2020-07-27 23:00:00 23.9 3 Sur 10 Sudoeste 0 -- -- 37
2020-07-27 22:00:00 27.4 3 Sur 11 Sur 0 -- -- 31
2020-07-27 21:00:00 30.3 3 Sudeste 15 Sur 0 -- -- 27
2020-07-27 20:00:00 33 7 Sur 24 Sur 0 -- -- 24
2020-07-27 19:00:00 34.1 6 Sudeste 31 Sudeste 0 -- -- 22
2020-07-27 18:00:00 35.3 12 Sudeste 28 Sudeste 0 -- -- 21
2020-07-27 17:00:00 35.7 9 Sudeste 29 Sudeste 0 -- -- 23
2020-07-27 16:00:00 37.5 10 Sudeste 30 Sur 0 -- -- 22
2020-07-27 15:00:00 37.1 8 Sudeste 28 Este 0 -- -- 22
2020-07-27 14:00:00 35.6 12 Sur 30 Sur 0 -- -- 26
2020-07-27 13:00:00 34.9 7 Sur 24 Sudoeste 0 -- -- 27
2020-07-27 12:00:00 32.5 9 Sudeste 18 Sur 0 -- -- 29
2020-07-27 09:00:00 19.1 0 Calma 7 Sudoeste 0 -- -- 93
2020-07-27 08:00:00 17 4 Sudoeste 7 Sudoeste 0 -- -- 92
2020-07-27 07:00:00 17 3 Sudoeste 6 Sur 0 -- -- 87
2020-07-27 06:00:00 18.2 3 Sudoeste 6 Sudoeste 0 -- -- 91
2020-07-27 05:00:00 18.2 3 Sudoeste 9 Sudoeste 0 -- -- 90
2020-07-27 04:00:00 19 0 Calma 4 Sudoeste 0 -- -- 89
2020-07-27 03:00:00 20.3 0 Calma 6 Sudeste 0 -- -- 88
2020-07-27 02:00:00 21.7 3 Este 9 Este 0 -- -- 87
2020-07-27 01:00:00 21.8 3 Sudeste 15 Sudeste 0 -- -- 88
2020-07-27 00:00:00 22.1 4 Este 15 Sudeste 0 -- -- 87
2020-07-26 23:00:00 23.5 5 Este 15 Este 0 -- -- 80
2020-07-26 22:00:00 25.4 4 Este 21 Sudeste 0 -- -- 69
2020-07-26 21:00:00 27.9 8 Este 23 Este 0 -- -- 62
2020-07-26 20:00:00 30.7 8 Este 25 Este 0 -- -- 54
2020-07-26 19:00:00 33.1 11 Este 34 Sudeste 0 -- -- 44
2020-07-26 18:00:00 35.4 13 Este 34 Este 0 -- -- 39
2020-07-26 17:00:00 37.3 13 Sudeste 33 Sudeste 0 -- -- 28
2020-07-26 16:00:00 38.3 10 Sudeste 27 Sudeste 0 -- -- 24
2020-07-26 15:00:00 37.4 8 Sur 24 Sur 0 -- -- 21
2020-07-26 14:00:00 36.4 8 Sudeste 20 Sur 0 -- -- 24
2020-07-26 13:00:00 35.3 6 Sudoeste 14 Este 0 -- -- 26
2020-07-26 12:00:00 32.5 6 Este 13 Este 0 -- -- 34
2020-07-26 11:00:00 28.9 4 Noroeste 9 Norte 0 -- -- 46
2020-07-26 10:00:00 25 4 Nordeste 8 Nordeste 0 -- -- 57
2020-07-26 09:00:00 20.6 2 Norte 4 Noroeste 0 -- -- 74
2020-07-26 08:00:00 16.1 0 Calma 7 Oeste 0 -- -- 83
2020-07-26 07:00:00 15.2 2 Sudoeste 5 Sudoeste 0 -- -- 84
2020-07-26 06:00:00 16.3 0 Calma 4 Sudoeste 0 -- -- 82
2020-07-26 05:00:00 16.9 0 Calma 5 Sur 0 -- -- 82
2020-07-26 04:00:00 17.6 0 Calma 5 Sur 0 -- -- 77
2020-07-26 03:00:00 18.6 0 Calma 4 Sur 0 -- -- 72
2020-07-26 02:00:00 19.7 2 Sur 4 Sur 0 -- -- 67
2020-07-26 01:00:00 21 0 Calma 6 Sudeste 0 -- -- 58
2020-07-26 00:00:00 22.6 3 Sudeste 8 Sudeste 0 -- -- 52
2020-07-25 23:00:00 23.8 3 Sudeste 6 Sudeste 0 -- -- 48
2020-07-25 22:00:00 26.2 0 Calma 6 Sudeste 0 -- -- 42
2020-07-25 21:00:00 29.2 5 Este 19 Sudeste 0 -- -- 35
2020-07-25 20:00:00 31.7 8 Sudeste 22 Sudeste 0 -- -- 30
2020-07-25 19:00:00 33.3 9 Sudeste 27 Sur 0 -- -- 28
2020-07-25 18:00:00 35 9 Sudeste 24 Sudeste 0 -- -- 28
2020-07-25 17:00:00 35.1 11 Sudeste 28 Sudeste 0 -- -- 27
2020-07-25 16:00:00 35.3 9 Sudeste 30 Sudeste 0 -- -- 27
2020-07-25 15:00:00 34.8 6 Sudeste 24 Este 0 -- -- 26
2020-07-25 14:00:00 33.1 9 Este 23 Nordeste 0 -- -- 31
2020-07-25 13:00:00 31.2 8 Este 22 Este 0 -- -- 36
2020-07-25 12:00:00 29.5 5 Este 16 Sudeste 0 -- -- 38
2020-07-25 11:00:00 26.8 5 Este 13 Sudeste 0 -- -- 50
2020-07-25 10:00:00 23.7 5 Este 13 Este 0 -- -- 65
2020-07-25 09:00:00 21.3 4 Este 9 Este 0 -- -- 80
2020-07-25 08:00:00 18.8 0 Calma 0 Calma 0 -- -- 88
2020-07-25 07:00:00 18.7 0 Calma 3 Nordeste 0 -- -- 85
2020-07-25 06:00:00 19.3 0 Calma 8 Este 0 -- -- 85
2020-07-25 05:00:00 19.7 3 Nordeste 12 Este 0 -- -- 85
2020-07-25 04:00:00 20.1 4 Este 12 Este 0 -- -- 86
2020-07-25 03:00:00 20.1 5 Este 19 Este 0 -- -- 86
2020-07-25 02:00:00 20.3 5 Este 16 Sudeste 0 -- -- 88
2020-07-25 01:00:00 21 6 Este 15 Este 0 -- -- 85
2020-07-25 00:00:00 22.3 3 Sudeste 10 Este 0 -- -- 77
2020-07-24 23:00:00 23.4 4 Sudeste 12 Este 0 -- -- 57
2020-07-24 22:00:00 25.2 4 Este 13 Sudeste 0 -- -- 51
2020-07-24 21:00:00 27.1 5 Sudeste 12 Sur 0 -- -- 46
2020-07-24 20:00:00 29.3 6 Sudeste 20 Sur 0 -- -- 42
2020-07-24 19:00:00 31.2 7 Sudeste 27 Sur 0 -- -- 40
2020-07-24 18:00:00 32.2 12 Sudeste 26 Este 0 -- -- 39
2020-07-24 17:00:00 32.9 11 Sudeste 31 Este 0 -- -- 37
2020-07-24 16:00:00 35.1 8 Sudeste 24 Este 0 -- -- 30
2020-07-24 15:00:00 34.4 10 Este 22 Este 0 -- -- 31
2020-07-24 14:00:00 34.5 8 Sudeste 20 Sudeste 0 -- -- 31
2020-07-24 13:00:00 32.9 6 Oeste 13 Noroeste 0 -- -- 34
2020-07-24 12:00:00 31.1 3 Norte 12 Noroeste 0 -- -- 37
2020-07-24 11:00:00 29.6 5 Nordeste 12 Nordeste 0 -- -- 40
2020-07-24 10:00:00 26.7 5 Nordeste 12 Este 0 -- -- 45
2020-07-24 09:00:00 22.6 0 Calma 4 Sudoeste 0 -- -- 59
2020-07-24 08:00:00 17.4 2 Sudoeste 11 Sudoeste 0 -- -- 70
2020-07-24 07:00:00 15.8 3 Sudoeste 7 Sudoeste 0 -- -- 71
2020-07-24 06:00:00 15.7 3 Sudoeste 6 Sudoeste 0 -- -- 70
2020-07-24 05:00:00 16 2 Sudoeste 6 Sudoeste 0 -- -- 70
2020-07-24 04:00:00 16.6 0 Calma 3 Sur 0 -- -- 69
2020-07-24 03:00:00 17.4 0 Calma 3 Sudoeste 0 -- -- 68
2020-07-24 02:00:00 18.3 0 Calma 5 Sudoeste 0 -- -- 65
2020-07-24 01:00:00 19.3 0 Calma 5 Oeste 0 -- -- 63
2020-07-24 00:00:00 20.8 2 Sudoeste 4 Sur 0 -- -- 60
2020-07-23 23:00:00 23 2 Sudeste 6 Sur 0 -- -- 53
2020-07-23 22:00:00 25.4 5 Sudeste 19 Sudeste 0 -- -- 47
2020-07-23 21:00:00 28.2 7 Sudeste 19 Este 0 -- -- 39
2020-07-23 20:00:00 31.2 8 Sudeste 23 Sur 0 -- -- 31
2020-07-23 19:00:00 33.5 7 Este 17 Este 0 -- -- 22
2020-07-23 18:00:00 34.5 6 Sudeste 22 Este 0 -- -- 21
2020-07-23 17:00:00 35.2 9 Nordeste 26 Nordeste 0 -- -- 18
2020-07-23 16:00:00 34.9 6 Nordeste 19 Norte 0 -- -- 17
2020-07-23 15:00:00 33.7 8 Norte 21 Noroeste 0 -- -- 18
2020-07-23 14:00:00 32.7 7 Noroeste 19 Oeste 0 -- -- 22
2020-07-23 13:00:00 30.8 5 Este 18 Este 0 -- -- 27
2020-07-23 12:00:00 29.2 6 Norte 15 Norte 0 -- -- 31
2020-07-23 11:00:00 26.8 3 Noroeste 9 Noroeste 0 -- -- 37
2020-07-23 10:00:00 23.7 3 Este 10 Nordeste 0 -- -- 50
2020-07-23 09:00:00 19.7 0 Calma 4 Nordeste 0 -- -- 59
2020-07-23 08:00:00 13.8 0 Calma 4 Oeste 0 -- -- 81
2020-07-23 07:00:00 12.4 0 Calma 3 Sudoeste 0 -- -- 82
2020-07-23 06:00:00 12.9 0 Calma 3 Oeste 0 -- -- 82
2020-07-23 05:00:00 13.6 0 Calma 6 Sudoeste 0 -- -- 80
2020-07-23 04:00:00 14.1 0 Calma 6 Sudoeste 0 -- -- 80
2020-07-23 03:00:00 14.6 0 Calma 4 Oeste 0 -- -- 78
2020-07-23 02:00:00 15.7 0 Calma 4 Sudoeste 0 -- -- 74
2020-07-23 01:00:00 16.8 2 Sudoeste 5 Sur 0 -- -- 71
2020-07-23 00:00:00 18.2 0 Calma 6 Sudoeste 0 -- -- 65
2020-07-22 23:00:00 19.9 0 Calma 8 Este 0 -- -- 61
2020-07-22 22:00:00 21.8 3 Este 24 Este 0 -- -- 53
2020-07-22 21:00:00 23.3 12 Este 25 Este 0 -- -- 53
2020-07-22 20:00:00 25 11 Nordeste 28 Nordeste 0 -- -- 48
2020-07-22 19:00:00 26.3 12 Este 31 Nordeste 0 -- -- 50
2020-07-22 18:00:00 27.1 13 Este 29 Este 0 -- -- 54
2020-07-22 17:00:00 27.7 13 Este 30 Este 0 -- -- 53
2020-07-22 16:00:00 27.8 11 Este 31 Este 0 -- -- 53
2020-07-22 15:00:00 26.7 10 Nordeste 29 Este 0 -- -- 57
2020-07-22 14:00:00 25.5 12 Este 33 Este 0 -- -- 55
2020-07-22 13:00:00 24.7 12 Este 35 Nordeste 0 -- -- 59
2020-07-22 12:00:00 25.7 12 Este 29 Este 0 -- -- 57
2020-07-22 11:00:00 23.8 13 Nordeste 24 Este 0 -- -- 66
2020-07-22 10:00:00 21.4 10 Este 24 Este 0 -- -- 77
2020-07-22 09:00:00 20.4 11 Este 22 Nordeste 0 -- -- 81
2020-07-22 08:00:00 18.5 4 Nordeste 14 Este 0 -- -- 91
2020-07-22 07:00:00 17.6 2 Este 8 Nordeste 0 -- -- 90
2020-07-22 06:00:00 18.6 4 Nordeste 15 Este 0 -- -- 89
2020-07-22 05:00:00 18.3 6 Este 16 Este 0 -- -- 91
2020-07-22 04:00:00 17.9 2 Nordeste 11 Sudeste 0 -- -- 91
2020-07-22 03:00:00 18.3 3 Este 6 Este 0 -- -- 88
2020-07-22 02:00:00 19.2 0 Calma 10 Este 0 -- -- 86
2020-07-22 01:00:00 19.6 3 Este 10 Sudeste 0 -- -- 85
2020-07-22 00:00:00 20.2 6 Este 24 Este 0 -- -- 84
2020-07-21 23:00:00 21.3 7 Este 22 Este 0 -- -- 77
2020-07-21 22:00:00 23.1 7 Este 15 Este 0 -- -- 66
2020-07-21 21:00:00 25.2 5 Este 17 Sudeste 0 -- -- 58
2020-07-21 20:00:00 27.8 8 Este 27 Sudeste 0 -- -- 50
2020-07-21 19:00:00 29.6 12 Este 28 Este 0 -- -- 48
2020-07-21 18:00:00 31.3 9 Este 30 Sudeste 0 -- -- 46
2020-07-21 17:00:00 32.7 10 Sudeste 30 Este 0 -- -- 41
2020-07-21 16:00:00 32.3 10 Este 27 Este 0 -- -- 40
2020-07-21 15:00:00 32 10 Este 28 Este 0 -- -- 41
2020-07-21 14:00:00 30.5 9 Este 26 Sudeste 0 -- -- 43
2020-07-21 13:00:00 28.9 7 Este 21 Sudeste 0 -- -- 46
2020-07-21 12:00:00 27.8 8 Este 21 Nordeste 0 -- -- 50
2020-07-21 11:00:00 25.1 9 Este 21 Este 0 -- -- 61
2020-07-21 10:00:00 22.5 6 Este 17 Este 0 -- -- 71
2020-07-21 09:00:00 19.9 6 Este 16 Este 0 -- -- 82
2020-07-21 08:00:00 18.3 5 Este 11 Este 0 -- -- 89
2020-07-21 07:00:00 18.2 4 Este 12 Este 0 -- -- 90
2020-07-21 06:00:00 17.9 0 Calma 4 Sur 0 -- -- 87
2020-07-21 05:00:00 18.9 0 Calma 7 Este 0 -- -- 87
2020-07-21 04:00:00 19.2 2 Este 9 Este 0 -- -- 87
2020-07-21 03:00:00 20 2 Este 11 Este 0 -- -- 85
2020-07-21 02:00:00 20.1 3 Este 12 Este 0 -- -- 84
2020-07-21 01:00:00 19.7 4 Este 13 Nordeste 0 -- -- 86
2020-07-21 00:00:00 20 5 Este 13 Este 0 -- -- 82
2020-07-20 23:00:00 21.2 4 Este 13 Este 0 -- -- 71
2020-07-20 22:00:00 23.1 5 Este 23 Este 0 -- -- 66
2020-07-20 21:00:00 25.5 6 Este 20 Sur 0 -- -- 64
2020-07-20 20:00:00 26.9 9 Este 26 Este 0 -- -- 61
2020-07-20 19:00:00 31.2 11 Este 27 Este 0 -- -- 52
2020-07-20 18:00:00 33.9 11 Este 26 Este 0 -- -- 41
2020-07-20 17:00:00 34.7 10 Sudeste 26 Nordeste 0 -- -- 32
2020-07-20 16:00:00 34.8 10 Sudeste 28 Este 0 -- -- 31
2020-07-20 15:00:00 34.4 9 Sur 20 Sudeste 0 -- -- 27
2020-07-20 14:00:00 33 5 Sudeste 21 Norte 0 -- -- 30
2020-07-20 13:00:00 30.8 6 Nordeste 17 Este 0 -- -- 37
2020-07-20 12:00:00 27 5 Norte 12 Nordeste 0 -- -- 49
2020-07-20 11:00:00 21.9 2 Este 7 Este 0 -- -- 67
2020-07-20 10:00:00 20.8 2 Norte 6 Nordeste 0 -- -- 73
2020-07-20 09:00:00 19.6 0 Calma 5 Sudoeste 0 -- -- 76
2020-07-20 08:00:00 19.2 0 Calma 2 Oeste 0 -- -- 81
2020-07-20 07:00:00 19.3 0 Calma 3 Sur 0 -- -- 79
2020-07-20 06:00:00 19.9 0 Calma 4 Este 0 -- -- 79
2020-07-20 05:00:00 20.3 0 Calma 10 Sudeste 0 -- -- 85
2020-07-20 04:00:00 20.4 3 Este 16 Este 0 -- -- 86
2020-07-20 03:00:00 20.8 4 Este 17 Sudeste 0 -- -- 83
2020-07-20 02:00:00 21.8 4 Este 15 Este 0 -- -- 70
2020-07-20 01:00:00 23.2 5 Nordeste 10 Nordeste 0 -- -- 57
2020-07-20 00:00:00 24.3 5 Sur 12 Sudoeste 0 -- -- 47
2020-07-19 23:00:00 25.4 6 Oeste 22 Oeste 0 -- -- 44
2020-07-19 22:00:00 26.2 9 Oeste 28 Noroeste 0 -- -- 44
2020-07-19 21:00:00 26.7 3 Sudoeste 25 Sur 0 -- -- 48
2020-07-19 20:00:00 28.5 12 Sur 31 Sur 0 -- -- 43
2020-07-19 19:00:00 31.7 12 Sudeste 32 Sur 0 -- -- 36
2020-07-19 18:00:00 33.7 12 Sur 32 Sur 0 -- -- 33
2020-07-19 17:00:00 34.7 8 Sur 24 Sudoeste 0 -- -- 29
2020-07-19 16:00:00 34.4 8 Sudoeste 21 Sudeste 0 -- -- 29
2020-07-19 15:00:00 33 10 Sur 21 Sur 0 -- -- 32
2020-07-19 14:00:00 31.7 8 Sur 24 Sudeste 0 -- -- 37
2020-07-19 13:00:00 29.8 9 Sur 22 Sur 0 -- -- 41
2020-07-19 12:00:00 28.8 7 Oeste 19 Sudoeste 0 -- -- 43
2020-07-19 11:00:00 26.6 8 Sudoeste 18 Sudoeste 0 -- -- 50
2020-07-19 10:00:00 24.1 3 Oeste 9 Nordeste 0 -- -- 58
2020-07-19 09:00:00 20.2 2 Este 5 Este 0 -- -- 75
2020-07-19 08:00:00 15.5 2 Sudoeste 5 Oeste 0 -- -- 91
2020-07-19 07:00:00 14.8 3 Sudoeste 8 Sudoeste 0 -- -- 90
2020-07-19 06:00:00 14.9 3 Sudoeste 8 Sur 0 -- -- 91
2020-07-19 05:00:00 15.4 2 Sudoeste 6 Sudoeste 0 -- -- 89
2020-07-19 04:00:00 15.9 0 Calma 4 Sudoeste 0 -- -- 88
2020-07-19 03:00:00 16.6 0 Calma 3 Sudoeste 0 -- -- 87
2020-07-19 02:00:00 17.7 0 Calma 5 Sudoeste 0 -- -- 84
2020-07-19 01:00:00 18.9 0 Calma 7 Sudeste 0 -- -- 81
2020-07-19 00:00:00 20.2 5 Sudeste 12 Sudeste 0 -- -- 78
2020-07-18 23:00:00 21.3 0 Calma 8 Sudeste 0 -- -- 70
2020-07-18 22:00:00 23.5 3 Sudeste 20 Sur 0 -- -- 64
2020-07-18 21:00:00 25.9 8 Sur 20 Sudeste 0 -- -- 55
2020-07-18 20:00:00 27.8 8 Sudeste 23 Sudeste 0 -- -- 49
2020-07-18 19:00:00 29.6 11 Sur 23 Sur 0 -- -- 43
2020-07-18 18:00:00 31.1 10 Sur 25 Sur 0 -- -- 41
2020-07-18 17:00:00 32.2 5 Sudoeste 16 Sur 0 -- -- 40
2020-07-18 16:00:00 31.3 6 Oeste 15 Sur 0 -- -- 38
2020-07-18 15:00:00 29.5 5 Norte 21 Oeste 0 -- -- 43
2020-07-18 14:00:00 28.7 8 Sudoeste 22 Sur 0 -- -- 47
2020-07-18 13:00:00 26.9 6 Este 19 Sur 0 -- -- 52
2020-07-18 12:00:00 25.3 6 Sudeste 15 Sudeste 0 -- -- 55
2020-07-18 11:00:00 24 5 Sudeste 13 Este 0 -- -- 61
2020-07-18 10:00:00 21.3 5 Sur 9 Sudoeste 0 -- -- 74
2020-07-18 09:00:00 19.7 3 Este 8 Este 0 -- -- 85
2020-07-18 08:00:00 17.1 0 Calma 3 Sudoeste 0 -- -- 93
2020-07-18 07:00:00 17.1 0 Calma 4 Sudoeste 0 -- -- 93
2020-07-18 06:00:00 17.3 0 Calma 4 Sudeste 0 -- -- 92
2020-07-18 05:00:00 18.2 0 Calma 9 Sudeste 0 -- -- 89
2020-07-18 04:00:00 18.9 2 Sudeste 7 Sur 0 -- -- 91
2020-07-18 03:00:00 18.7 2 Este 10 Este 0 -- -- 91
2020-07-18 02:00:00 18.1 3 Sudeste 7 Sur 0 -- -- 92
2020-07-18 01:00:00 18.5 4 Sudeste 9 Este 0 -- -- 90
2020-07-18 00:00:00 18.4 0 Calma 8 Este 0 -- -- 87
2020-07-17 23:00:00 19 2 Sudeste 11 Este 0 -- -- 85
2020-07-17 22:00:00 20.4 0 Calma 11 Oeste 0 -- -- 81
2020-07-17 21:00:00 22 3 Este 12 Este 0.2 -- -- 82
2020-07-17 20:00:00 22.2 6 Este 17 Sur 0 -- -- 83
2020-07-17 19:00:00 24.6 6 Sudeste 21 Sur 2.2 -- -- 72
2020-07-17 18:00:00 27.7 6 Sudeste 29 Este 0.2 -- -- 53
2020-07-17 17:00:00 31 14 Sudeste 29 Sur 0 -- -- 41
2020-07-17 16:00:00 31.6 12 Sudeste 28 Sudeste 0 -- -- 39
2020-07-17 15:00:00 31.5 6 Oeste 25 Sur 0 -- -- 33
2020-07-17 14:00:00 30.3 8 Sur 21 Sudoeste 0 -- -- 34
2020-07-17 13:00:00 28.9 10 Sur 26 Sur 0 -- -- 38
2020-07-17 12:00:00 27.6 10 Sudoeste 21 Sudoeste 0 -- -- 42
2020-07-17 11:00:00 26.6 8 Sudoeste 21 Sudoeste 0 -- -- 47
2020-07-17 10:00:00 24.5 5 Este 11 Sudeste 0 -- -- 63
2020-07-17 09:00:00 20.7 3 Nordeste 7 Nordeste 0 -- -- 77
2020-07-17 08:00:00 16.3 2 Sudoeste 6 Sur 0 -- -- 92
2020-07-17 07:00:00 15.3 0 Calma 4 Sudoeste 0 -- -- 89
2020-07-17 06:00:00 16 2 Sudoeste 6 Sudoeste 0 -- -- 89
2020-07-17 05:00:00 16.2 2 Sur 5 Sudoeste 0 -- -- 88
2020-07-17 04:00:00 16.8 0 Calma 4 Sudoeste 0 -- -- 86
2020-07-17 03:00:00 17.8 0 Calma 6 Sur 0 -- -- 84
2020-07-17 02:00:00 18.1 0 Calma 4 Sur 0 -- -- 81
2020-07-17 01:00:00 19.1 2 Sur 4 Sur 0 -- -- 78
2020-07-17 00:00:00 20.4 0 Calma 14 Este 0 -- -- 74
2020-07-16 23:00:00 21.7 6 Este 18 Sudeste 0 -- -- 70
2020-07-16 22:00:00 23.6 5 Sudeste 15 Sur 0 -- -- 63
2020-07-16 21:00:00 26.4 7 Sudeste 20 Sudeste 0 -- -- 53
2020-07-16 20:00:00 28.9 6 Sudeste 21 Este 0 -- -- 43
2020-07-16 19:00:00 30 8 Este 22 Este 0 -- -- 39
2020-07-16 18:00:00 30.9 8 Sudeste 24 Sudeste 0 -- -- 36
2020-07-16 17:00:00 31.8 5 Sur 22 Sur 0 -- -- 32
2020-07-16 16:00:00 31.9 6 Norte 21 Este 0 -- -- 31
2020-07-16 15:00:00 30.8 6 Este 22 Sur 0 -- -- 32
2020-07-16 14:00:00 29.4 7 Sur 19 Sur 0 -- -- 35
2020-07-16 13:00:00 28.4 7 Sudeste 19 Este 0 -- -- 39
2020-07-16 12:00:00 27 6 Este 20 Este 0 -- -- 44
2020-07-16 11:00:00 24.9 6 Este 15 Nordeste 0 -- -- 53
2020-07-16 10:00:00 22.5 7 Este 14 Este 0 -- -- 65
2020-07-16 09:00:00 20.3 5 Este 12 Nordeste 0 -- -- 75
2020-07-16 08:00:00 14.8 0 Calma 8 Sudoeste 0 -- -- 82
2020-07-16 07:00:00 13.5 0 Calma 5 Sudoeste 0 -- -- 83
2020-07-16 06:00:00 13.9 0 Calma 4 Sudoeste 0 -- -- 80
2020-07-16 05:00:00 14.6 2 Sudoeste 7 Sudoeste 0 -- -- 78
2020-07-16 04:00:00 15.3 2 Sudoeste 5 Sudoeste 0 -- -- 75
2020-07-16 03:00:00 16.3 3 Sudoeste 8 Sudoeste 0 -- -- 72
2020-07-16 02:00:00 16.9 3 Sur 6 Sur 0 -- -- 69
2020-07-16 01:00:00 18.1 0 Calma 5 Este 0 -- -- 65
2020-07-16 00:00:00 20 0 Calma 13 Sur 0 -- -- 60
2020-07-15 23:00:00 21.2 5 Sur 15 Sudeste 0 -- -- 59
2020-07-15 22:00:00 22.4 6 Sur 13 Sur 0 -- -- 58
2020-07-15 21:00:00 24.2 6 Sur 18 Sur 0 -- -- 54
2020-07-15 20:00:00 26 6 Sudeste 22 Este 0 -- -- 50
2020-07-15 19:00:00 28 6 Sudeste 29 Este 0 -- -- 44
2020-07-15 18:00:00 30.4 6 Este 19 Este 0 -- -- 37
2020-07-15 17:00:00 30.6 6 Sudeste 28 Nordeste 0 -- -- 37
2020-07-15 16:00:00 30 8 Sudeste 20 Sur 0 -- -- 38
2020-07-15 15:00:00 28.6 6 Este 20 Sudeste 0 -- -- 43
2020-07-15 14:00:00 28.2 7 Este 19 Sudeste 0 -- -- 44
2020-07-15 13:00:00 27.3 6 Sudeste 21 Este 0 -- -- 46
2020-07-15 12:00:00 26.2 9 Este 20 Sudeste 0 -- -- 49
2020-07-15 11:00:00 24.6 8 Este 15 Este 0 -- -- 57
2020-07-15 10:00:00 22.2 5 Este 11 Este 0 -- -- 66
2020-07-15 09:00:00 19.4 2 Este 6 Nordeste 0 -- -- 78
2020-07-15 08:00:00 16.2 0 Calma 4 Nordeste 0 -- -- 89
2020-07-15 07:00:00 16.2 0 Calma 5 Nordeste 0 -- -- 87
2020-07-15 06:00:00 15.9 0 Calma 6 Noroeste 0 -- -- 89
2020-07-15 05:00:00 15.1 0 Calma 6 Sudoeste 0 -- -- 91
2020-07-15 04:00:00 14.4 2 Sudoeste 6 Sudoeste 0 -- -- 91
2020-07-15 03:00:00 14.8 0 Calma 4 Nordeste 0 -- -- 88
2020-07-15 02:00:00 15.5 3 Este 13 Sudeste 0 -- -- 89
2020-07-15 01:00:00 15.3 2 Sur 5 Sudoeste 0 -- -- 85
2020-07-15 00:00:00 16.8 0 Calma 16 Sudoeste 0 -- -- 80
2020-07-14 23:00:00 17.4 6 Sudoeste 13 Sudoeste 0 -- -- 79
2020-07-14 22:00:00 18.2 4 Este 20 Este 0 -- -- 76
2020-07-14 21:00:00 20.3 10 Este 24 Nordeste 0 -- -- 78
2020-07-14 20:00:00 21.5 5 Este 23 Este 0 -- -- 74
2020-07-14 19:00:00 23.5 8 Este 25 Este 0 -- -- 63
2020-07-14 18:00:00 23 13 Este 27 Nordeste 0 -- -- 60
2020-07-14 17:00:00 25.3 12 Sudeste 27 Sudeste 0 -- -- 50
2020-07-14 16:00:00 27.5 10 Sudeste 30 Sudeste 0 -- -- 45
2020-07-14 15:00:00 28.3 13 Sudeste 32 Este 0 -- -- 43
2020-07-14 14:00:00 27.2 12 Sur 28 Sudoeste 0 -- -- 42
2020-07-14 13:00:00 25.2 8 Sur 22 Sur 0 -- -- 51
2020-07-14 12:00:00 25.2 6 Este 20 Nordeste 0 -- -- 52
2020-07-14 11:00:00 23.7 7 Este 18 Sudeste 0 -- -- 63
2020-07-14 10:00:00 21.8 6 Nordeste 13 Nordeste 0 -- -- 71
2020-07-14 09:00:00 20.1 4 Este 13 Este 0 -- -- 83
2020-07-14 08:00:00 16.2 0 Calma 5 Sudoeste 0 -- -- 92
2020-07-14 07:00:00 14.6 0 Calma 3 Sudoeste 0 -- -- 89
2020-07-14 06:00:00 15 0 Calma 5 Sudoeste 0 -- -- 87
2020-07-14 05:00:00 15.7 2 Sur 5 Sur 0 -- -- 86
2020-07-14 04:00:00 16.5 0 Calma 4 Sur 0 -- -- 84
2020-07-14 03:00:00 17.4 0 Calma 6 Sudeste 0 -- -- 83
2020-07-14 02:00:00 18.2 0 Calma 6 Sur 0 -- -- 81
2020-07-14 01:00:00 19 0 Calma 4 Este 0 -- -- 77
2020-07-14 00:00:00 20 2 Este 12 Sudeste 0 -- -- 75
2020-07-13 23:00:00 20.8 5 Este 20 Este 0 -- -- 70
2020-07-13 22:00:00 22.7 8 Este 17 Este 0 -- -- 67
2020-07-13 21:00:00 24.7 7 Este 21 Este 0 -- -- 59
2020-07-13 20:00:00 27 8 Este 24 Nordeste 0 -- -- 53
2020-07-13 19:00:00 28.2 10 Este 28 Este 0 -- -- 51
2020-07-13 18:00:00 29.4 11 Este 30 Este 0 -- -- 49
2020-07-13 17:00:00 30.2 12 Este 27 Este 0 -- -- 45
2020-07-13 16:00:00 30.3 9 Este 29 Este 0 -- -- 43
2020-07-13 15:00:00 30.3 7 Este 18 Sudeste 0 -- -- 39
2020-07-13 14:00:00 29.5 7 Este 21 Este 0 -- -- 39
2020-07-13 13:00:00 28.1 9 Nordeste 20 Nordeste 0 -- -- 42
2020-07-13 12:00:00 26.6 8 Este 21 Este 0 -- -- 53
2020-07-13 11:00:00 24.2 5 Este 15 Este 0 -- -- 64
2020-07-13 10:00:00 21.1 2 Noroeste 8 Noroeste 0 -- -- 78
2020-07-13 09:00:00 18.5 3 Norte 9 Nordeste 0 -- -- 95
2020-07-13 08:00:00 15.5 0 Calma 4 Sudoeste 0 -- -- 97
2020-07-13 07:00:00 14.6 0 Calma 6 Sudoeste 0 -- -- 95
2020-07-13 06:00:00 14.9 0 Calma 4 Sudoeste 0 -- -- 94
2020-07-13 05:00:00 15.4 0 Calma 3 Oeste 0 -- -- 94
2020-07-13 04:00:00 16.1 0 Calma 5 Sudoeste 0.2 -- -- 94
2020-07-13 03:00:00 16.8 0 Calma 6 Sudoeste 0 -- -- 93
2020-07-13 02:00:00 17.5 0 Calma 8 Sur 0 -- -- 93
2020-07-13 01:00:00 18.1 3 Sur 9 Este 0 -- -- 93
2020-07-13 00:00:00 18.8 4 Nordeste 19 Norte 0 -- -- 93